Terminal Aerodrome Forecast
Issued by NWS Knoxville/Tri Cities, TN

Home | Current Version | Previous Version | Text Only | Print | Product List | Glossary On
Versions: 1 2 3 4 5 6 7 8 9 10 11 12 13 14 15 16 17 18 19 20 21 22 23 24 25 26 27 28 29 30 31 32
000
FTUS44 KMRX 200552
TAFCHA
TAF
KCHA 200552Z 2006/2106 00000KT P6SM SCT250
     FM200800 00000KT 4SM BR SCT250
     FM201400 03003KT P6SM SCT250
     FM201800 14003KT P6SM SCT250=

USA.gov is the U.S. government's official web portal to all federal, state and local government web resources and services.